Time;durP1;ratioP1;P1;durP2;ratioP2;P2;SDS_P1;SDS_P2;PMS_P1;PMS_P2;Temp;Humidity;BMP_temperature;BMP_pressure;BME280_temperature;BME280_humidity;BME280_pressure;Samples;Min_cycle;Max_cycle;Signal;HPM_P1;HPM_P2
2021/01/26 00:02:30;;;;;;;12.13;3.25;;;;;;;5.25;100.00;98743.63;1648563;87;21345;-77
2021/01/26 00:05:37;;;;;;;17.10;2.90;;;;;;;5.20;100.00;98739.27;1647217;87;21202;-78
2021/01/26 00:08:43;;;;;;;13.43;3.10;;;;;;;5.11;100.00;98742.54;1648557;87;21242;-78
2021/01/26 00:11:49;;;;;;;10.72;2.80;;;;;;;5.07;98.00;98754.76;1648399;86;21950;-78
2021/01/26 00:14:54;;;;;;;7.85;2.50;;;;;;;4.98;95.53;98741.44;1648645;87;21314;-78
2021/01/26 00:18:00;;;;;;;11.80;3.50;;;;;;;4.91;93.48;98754.87;1648464;87;21372;-78
2021/01/26 00:21:05;;;;;;;7.45;2.90;;;;;;;4.84;91.96;98745.75;1648639;87;21198;-79
2021/01/26 00:24:12;;;;;;;14.38;3.30;;;;;;;4.78;91.29;98745.95;1648557;87;21365;-79
2021/01/26 00:27:16;;;;;;;10.68;2.67;;;;;;;4.72;90.97;98755.31;1650938;84;21331;-79
2021/01/26 00:30:32;;;;;;;12.50;3.05;;;;;;;4.64;90.96;98751.28;1649103;87;21304;-79
2021/01/26 00:33:37;;;;;;;10.10;3.30;;;;;;;4.58;90.89;98745.55;1655756;86;21313;-79
2021/01/26 00:36:42;;;;;;;13.25;3.22;;;;;;;4.56;90.96;98752.15;1649070;87;21300;-79
2021/01/26 00:39:48;;;;;;;10.65;3.10;;;;;;;4.56;90.99;98756.21;1656690;86;21839;-78
2021/01/26 00:42:54;;;;;;;13.70;3.67;;;;;;;4.52;91.04;98747.62;1648556;87;21229;-78
2021/01/26 00:45:59;;;;;;;10.48;3.47;;;;;;;4.52;91.28;98757.61;1656646;86;21831;-78
2021/01/26 00:49:05;;;;;;;11.00;3.00;;;;;;;4.50;91.52;98755.05;1656612;86;21777;-79
2021/01/26 00:52:11;;;;;;;13.58;5.53;;;;;;;4.52;91.91;98768.44;1656653;86;21808;-79
2021/01/26 00:55:19;;;;;;;13.48;3.25;;;;;;;4.56;92.29;98783.29;1656566;85;21183;-79
2021/01/26 00:58:24;;;;;;;11.33;3.25;;;;;;;4.59;92.50;98782.95;1656451;86;21230;-79
2021/01/26 01:01:31;;;;;;;17.10;4.58;;;;;;;4.61;92.52;98784.96;1656715;86;21237;-79
2021/01/26 01:04:36;;;;;;;8.60;3.47;;;;;;;4.62;92.41;98792.09;1656639;86;21309;-79
2021/01/26 01:07:42;;;;;;;12.47;3.65;;;;;;;4.60;92.11;98781.92;1656551;86;21370;-79
2021/01/26 01:10:48;;;;;;;9.25;3.72;;;;;;;4.60;91.95;98800.37;1656683;85;21187;-79
2021/01/26 01:13:53;;;;;;;14.18;3.55;;;;;;;4.59;91.72;98813.58;1656463;86;21229;-79
2021/01/26 01:16:58;;;;;;;7.72;3.58;;;;;;;4.60;91.67;98815.77;1656634;86;21312;-79
2021/01/26 01:20:04;;;;;;;8.73;2.92;;;;;;;4.59;91.75;98828.47;1656678;86;21317;-79
2021/01/26 01:23:10;;;;;;;11.30;3.35;;;;;;;4.61;91.95;98830.52;1656548;86;21234;-79
2021/01/26 01:26:16;;;;;;;10.10;3.55;;;;;;;4.60;91.96;98839.64;1656547;86;21226;-79
2021/01/26 01:29:21;;;;;;;12.63;3.80;;;;;;;4.63;92.00;98846.58;1655064;86;21880;-79
2021/01/26 01:32:26;;;;;;;8.68;3.85;;;;;;;4.59;91.92;98855.56;1656611;86;21325;-79
2021/01/26 01:35:32;;;;;;;9.95;3.98;;;;;;;4.58;92.06;98861.16;1656659;86;21195;-79
2021/01/26 01:38:38;;;;;;;13.60;3.87;;;;;;;4.54;92.06;98855.75;1656621;86;21234;-79
2021/01/26 01:41:44;;;;;;;7.12;3.37;;;;;;;4.54;91.98;98879.61;1656597;85;21332;-79
2021/01/26 01:44:49;;;;;;;4.25;2.60;;;;;;;4.48;91.63;98879.47;1656655;86;21206;-79
2021/01/26 01:48:20;;;;;;;6.05;2.42;;;;;;;4.39;91.06;98877.27;1656555;86;21357;-79
2021/01/26 01:51:28;;;;;;;5.95;2.65;;;;;;;4.29;90.22;98896.41;1656803;86;21345;-79
2021/01/26 01:54:41;;;;;;;3.52;2.35;;;;;;;4.15;90.02;98907.92;1656653;86;21352;-80
2021/01/26 01:57:51;;;;;;;6.97;3.12;;;;;;;4.03;90.33;98913.31;1656708;85;21321;-78
2021/01/26 02:01:04;;;;;;;5.20;2.40;;;;;;;3.91;90.64;98920.09;1656552;86;21260;-79
2021/01/26 02:04:13;;;;;;;4.70;2.12;;;;;;;3.81;91.01;98935.97;1656559;86;21370;-79
2021/01/26 02:07:18;;;;;;;6.25;2.25;;;;;;;3.76;91.33;98937.45;1656652;86;21195;-78
2021/01/26 02:10:24;;;;;;;6.95;2.37;;;;;;;3.72;91.49;98949.13;1642093;86;21183;-79
2021/01/26 02:13:29;;;;;;;4.35;2.20;;;;;;;3.66;91.24;98964.64;1656438;85;21329;-79
2021/01/26 02:17:01;;;;;;;6.03;2.22;;;;;;;3.59;90.97;98977.15;1656478;86;21191;-79
2021/01/26 02:20:28;;;;;;;4.00;1.95;;;;;;;3.55;90.93;98978.48;1656619;86;21871;-79
2021/01/26 02:24:23;;;;;;;3.47;1.90;;;;;;;3.51;90.63;98992.83;1655833;86;21349;-79
2021/01/26 02:28:02;;;;;;;6.37;1.80;;;;;;;3.44;90.06;99000.42;1656189;85;21315;-78
2021/01/26 02:31:23;;;;;;;3.30;2.00;;;;;;;3.41;89.80;99000.73;1644323;86;21943;-79
2021/01/26 02:34:46;;;;;;;4.90;1.80;;;;;;;3.35;89.75;99025.21;1645512;87;21807;-79
2021/01/26 02:38:12;;;;;;;2.08;1.55;;;;;;;3.28;89.38;99030.39;1645493;87;21235;-80
2021/01/26 02:41:49;;;;;;;5.87;2.10;;;;;;;3.24;88.71;99026.31;1645413;87;21322;-80
2021/01/26 02:45:14;;;;;;;4.72;1.90;;;;;;;3.20;87.92;99027.67;1645554;87;21310;-79
2021/01/26 02:48:38;;;;;;;4.80;1.82;;;;;;;3.15;87.61;99039.44;1645482;87;21337;-80
2021/01/26 02:51:54;;;;;;;2.92;1.50;;;;;;;3.12;87.89;99057.34;1645284;87;21314;-79
2021/01/26 02:55:23;;;;;;;4.95;1.67;;;;;;;3.08;88.21;99074.87;1644689;87;21326;-80
2021/01/26 02:59:00;;;;;;;3.98;1.90;;;;;;;3.05;88.39;99069.27;1645344;86;21334;-80
2021/01/26 03:02:13;;;;;;;3.02;1.65;;;;;;;2.98;88.48;99067.38;1615351;89;21311;-80
2021/01/26 03:05:23;;;;;;;4.72;1.52;;;;;;;2.90;88.54;99075.41;1644525;87;21716;-79
2021/01/26 03:08:30;;;;;;;;;;;;;;;2.84;88.47;99085.00;1647904;87;21349;-80
2021/01/26 03:11:49;;;;;;;5.50;2.08;;;;;;;2.77;88.51;99092.86;1645569;87;20282;-80
2021/01/26 03:15:10;;;;;;;5.33;1.98;;;;;;;2.71;88.57;99090.79;1645574;87;21218;-80
2021/01/26 03:18:20;;;;;;;3.20;2.20;;;;;;;2.65;88.63;99104.08;1645594;87;21365;-79
2021/01/26 03:21:25;;;;;;;3.95;2.17;;;;;;;2.55;88.78;99125.75;1645563;87;21358;-80
2021/01/26 03:24:44;;;;;;;4.30;2.87;;;;;;;2.48;89.10;99121.95;1645640;87;21317;-80
2021/01/26 03:27:50;;;;;;;4.65;2.67;;;;;;;2.43;89.41;99125.11;1645508;87;21341;-80
2021/01/26 03:30:57;;;;;;;4.20;2.35;;;;;;;2.36;89.59;99120.50;1644678;87;21243;-79
2021/01/26 03:34:02;;;;;;;3.50;2.10;;;;;;;2.28;89.88;99134.24;1645525;87;21212;-80
2021/01/26 03:37:08;;;;;;;2.65;1.72;;;;;;;2.24;90.12;99150.89;1645575;87;21191;-80
2021/01/26 03:40:15;;;;;;;2.75;1.90;;;;;;;2.16;90.31;99162.42;1645621;87;21200;-80
2021/01/26 03:43:20;;;;;;;3.35;2.12;;;;;;;2.03;90.54;99157.91;1645535;87;21804;-79
2021/01/26 03:46:50;;;;;;;2.25;1.80;;;;;;;1.98;90.90;99176.39;1645418;87;21351;-79
2021/01/26 03:50:10;;;;;;;3.12;2.20;;;;;;;1.96;91.13;99193.20;1645548;87;21199;-80
2021/01/26 03:53:46;;;;;;;3.22;2.27;;;;;;;1.95;91.23;99192.86;1645684;87;21768;-79
2021/01/26 03:57:01;;;;;;;2.52;1.80;;;;;;;1.92;91.23;99199.88;1639175;87;21311;-79
2021/01/26 04:00:22;;;;;;;2.72;1.85;;;;;;;1.84;91.30;99199.30;1645357;86;21251;-80
2021/01/26 04:04:15;;;;;;;2.52;1.90;;;;;;;1.79;91.45;99194.84;1644712;87;21259;-80
2021/01/26 04:07:30;;;;;;;2.87;2.15;;;;;;;1.75;91.65;99208.27;1645460;87;21310;-80
2021/01/26 04:10:39;;;;;;;2.55;1.72;;;;;;;1.75;92.07;99215.85;1645606;87;21315;-79
2021/01/26 04:13:51;;;;;;;4.08;2.00;;;;;;;1.78;92.33;99231.72;1645526;87;21359;-79
2021/01/26 04:17:08;;;;;;;2.17;1.82;;;;;;;1.82;92.46;99236.83;1649052;86;21300;-80
2021/01/26 04:20:21;;;;;;;4.42;2.17;;;;;;;1.85;92.53;99235.20;1654089;86;21173;-80
2021/01/26 04:23:26;;;;;;;4.83;2.05;;;;;;;1.86;92.54;99244.98;1623794;88;21240;-79
2021/01/26 04:26:33;;;;;;;3.72;2.22;;;;;;;1.82;92.52;99239.52;1628389;88;21312;-79
2021/01/26 04:29:40;;;;;;;4.12;2.10;;;;;;;1.82;92.64;99247.61;1609086;88;21228;-80
2021/01/26 04:32:45;;;;;;;3.17;2.27;;;;;;;1.84;92.74;99246.98;1670591;85;21228;-80
2021/01/26 04:35:51;;;;;;;3.37;2.20;;;;;;;1.86;92.89;99265.20;1678293;85;21161;-80
2021/01/26 04:38:57;;;;;;;2.65;2.20;;;;;;;1.87;92.90;99266.89;1678314;85;21914;-79
2021/01/26 04:42:16;;;;;;;3.37;2.02;;;;;;;1.86;92.91;99273.30;1678391;85;21703;-80
2021/01/26 04:46:10;;;;;;;2.35;2.00;;;;;;;1.84;92.98;99280.69;1678305;84;21323;-80
2021/01/26 04:49:34;;;;;;;4.35;2.10;;;;;;;1.81;93.01;99289.06;1673100;85;21916;-80
2021/01/26 04:53:14;;;;;;;4.08;2.40;;;;;;;1.79;93.02;99301.34;1617506;87;21745;-80
2021/01/26 04:56:31;;;;;;;3.52;2.62;;;;;;;1.77;93.02;99310.91;1620783;87;21251;-78
2021/01/26 05:00:11;;;;;;;3.80;2.12;;;;;;;1.76;92.98;99320.00;1626223;87;21370;-78
2021/01/26 05:03:43;;;;;;;;;;;;;;;1.74;92.90;99328.74;1636230;87;21323;-78
2021/01/26 05:07:00;;;;;;;3.87;2.30;;;;;;;1.65;92.80;99343.09;1654268;87;20200;-78
2021/01/26 05:10:15;;;;;;;3.47;2.45;;;;;;;1.57;92.90;99351.02;1637552;87;21232;-77
2021/01/26 05:13:36;;;;;;;3.50;2.50;;;;;;;1.56;93.12;99352.52;1666984;85;21283;-78
2021/01/26 05:17:04;;;;;;;3.98;2.77;;;;;;;1.57;93.35;99361.80;1680909;85;21726;-78
2021/01/26 05:20:17;;;;;;;2.90;2.25;;;;;;;1.62;93.52;99367.62;1680346;85;21859;-77
2021/01/26 05:23:26;;;;;;;3.55;2.40;;;;;;;1.65;93.53;99375.44;1676381;85;21300;-78
2021/01/26 05:26:33;;;;;;;2.92;2.35;;;;;;;1.66;93.64;99382.52;1662512;85;21848;-78
2021/01/26 05:29:38;;;;;;;4.12;2.47;;;;;;;1.72;93.74;99391.87;1678303;84;21172;-78
2021/01/26 05:32:45;;;;;;;7.87;2.70;;;;;;;1.76;93.79;99402.23;1675754;84;21305;-78
2021/01/26 05:35:52;;;;;;;5.17;2.35;;;;;;;1.84;93.80;99411.48;1659195;86;21326;-78
2021/01/26 05:38:59;;;;;;;3.17;2.52;;;;;;;1.87;93.64;99419.26;1670243;85;21365;-79
2021/01/26 05:42:04;;;;;;;3.40;2.30;;;;;;;1.86;93.61;99430.55;1664261;85;21172;-79
2021/01/26 05:45:16;;;;;;;3.62;2.35;;;;;;;1.87;93.64;99439.48;1631211;85;21379;-78
2021/01/26 05:48:24;;;;;;;5.28;2.83;;;;;;;1.87;93.71;99449.77;1668019;85;21732;-78
2021/01/26 05:51:33;;;;;;;6.15;2.47;;;;;;;1.92;93.86;99446.65;1669109;84;21245;-79
2021/01/26 05:54:41;;;;;;;4.20;2.80;;;;;;;1.97;94.02;99450.61;1670864;84;21306;-78
2021/01/26 05:57:46;;;;;;;4.75;2.40;;;;;;;2.01;94.07;99457.94;1653295;85;21208;-78
2021/01/26 06:00:52;;;;;;;4.15;2.77;;;;;;;2.07;94.14;99449.30;1667958;84;21209;-78
2021/01/26 06:04:21;;;;;;;3.15;2.02;;;;;;;2.15;94.16;99455.30;1637557;86;21319;-78
2021/01/26 06:07:34;;;;;;;2.65;2.10;;;;;;;2.19;93.96;99444.08;1667123;84;21207;-78
2021/01/26 06:10:39;;;;;;;3.70;2.00;;;;;;;2.25;93.80;99458.84;1668676;85;21565;-78
2021/01/26 06:13:46;;;;;;;2.70;2.22;;;;;;;2.33;93.78;99466.22;1670030;85;21912;-78
2021/01/26 06:16:53;;;;;;;4.45;2.25;;;;;;;2.40;93.59;99482.17;1669371;84;21308;-78
2021/01/26 06:20:27;;;;;;;3.10;2.20;;;;;;;2.49;93.44;99492.11;1668426;84;21379;-80
2021/01/26 06:23:36;;;;;;;5.20;2.90;;;;;;;2.54;93.25;99481.25;1674717;84;21322;-78
2021/01/26 06:26:42;;;;;;;4.85;2.42;;;;;;;2.60;93.09;99497.87;1675926;84;21181;-78
2021/01/26 06:30:13;;;;;;;6.55;3.20;;;;;;;2.66;93.10;99487.32;1666005;84;21215;-78
2021/01/26 06:34:07;;;;;;;3.75;2.30;;;;;;;2.72;93.01;99491.28;1669177;84;21357;-78
2021/01/26 06:37:31;;;;;;;4.03;2.15;;;;;;;2.79;92.92;99503.22;1606709;88;21254;-78
2021/01/26 06:40:59;;;;;;;4.08;2.50;;;;;;;2.80;92.79;99500.36;1634664;86;21965;-79
2021/01/26 06:44:15;;;;;;;10.35;2.92;;;;;;;2.81;92.71;99502.56;1610350;87;21328;-79
2021/01/26 06:47:27;;;;;;;8.23;2.90;;;;;;;2.78;92.67;99502.38;1661491;84;21192;-79
2021/01/26 06:51:17;;;;;;;8.35;3.92;;;;;;;2.80;92.73;99503.06;1654920;85;21753;-78
2021/01/26 06:54:38;;;;;;;9.60;5.33;;;;;;;2.89;92.79;99514.00;1661923;85;21328;-79
2021/01/26 06:58:20;;;;;;;11.28;6.05;;;;;;;2.97;92.67;99519.52;1662622;85;21460;-78
2021/01/26 07:01:58;;;;;;;10.75;4.80;;;;;;;3.08;92.57;99527.44;1660006;85;21469;-81
2021/01/26 07:05:36;;;;;;;10.90;5.42;;;;;;;3.20;92.35;99549.71;1637905;86;21407;-82
2021/01/26 07:09:11;;;;;;;6.90;4.15;;;;;;;3.31;91.96;99545.48;1617615;86;21726;-81
2021/01/26 07:12:40;;;;;;;10.20;5.15;;;;;;;3.38;91.58;99546.58;1662894;85;21208;-81
2021/01/26 07:16:12;;;;;;;7.90;3.98;;;;;;;3.47;91.19;99565.97;1661984;85;22286;-80
2021/01/26 07:20:00;;;;;;;10.13;4.78;;;;;;;3.53;90.87;99560.48;1665086;85;21194;-80
2021/01/26 07:23:43;;;;;;;12.75;4.03;;;;;;;3.60;90.54;99560.22;1665183;85;21380;-80
2021/01/26 07:27:20;;;;;;;10.98;5.17;;;;;;;3.72;90.35;99573.06;1664267;85;21975;-84
2021/01/26 07:30:37;;;;;;;12.50;4.70;;;;;;;3.93;90.53;99576.84;1665177;85;21310;-78
2021/01/26 07:34:13;;;;;;;7.15;3.00;;;;;;;4.13;89.94;99566.23;1662158;83;21374;-78
2021/01/26 07:37:29;;;;;;;14.93;3.17;;;;;;;4.26;89.04;99559.09;1664949;84;21244;-78
2021/01/26 07:40:53;;;;;;;6.05;2.83;;;;;;;4.30;87.87;99580.30;1652485;85;21960;-81
2021/01/26 07:44:27;;;;;;;8.15;3.30;;;;;;;4.35;87.26;99578.48;1631750;85;21259;-81
2021/01/26 07:47:53;;;;;;;5.47;2.85;;;;;;;4.41;86.57;99575.65;1640872;85;21848;-80
2021/01/26 07:51:00;;;;;;;9.78;3.22;;;;;;;4.47;86.03;99587.20;1675987;84;21196;-80
2021/01/26 07:54:34;;;;;;;8.93;3.67;;;;;;;4.56;85.79;99593.94;1670365;84;21286;-80
2021/01/26 07:58:08;;;;;;;11.75;3.45;;;;;;;4.68;85.36;99591.82;1662095;84;21346;-81
2021/01/26 08:01:14;;;;;;;13.35;3.67;;;;;;;4.79;84.72;99587.50;1665840;84;21344;-80
2021/01/26 08:04:19;;;;;;;19.55;4.47;;;;;;;4.85;83.89;99597.73;1642554;86;21319;-82
2021/01/26 08:07:36;;;;;;;11.40;3.22;;;;;;;4.92;83.47;99601.16;1639729;86;21264;-80
2021/01/26 08:10:42;;;;;;;11.55;3.62;;;;;;;5.01;83.02;99595.64;1655578;85;21310;-80
2021/01/26 08:13:56;;;;;;;17.25;3.70;;;;;;;5.05;82.18;99598.89;1642119;85;21377;-81
2021/01/26 08:17:07;;;;;;;14.53;3.87;;;;;;;4.95;81.54;99610.34;1669731;85;21913;-77
2021/01/26 08:20:39;;;;;;;10.93;3.40;;;;;;;4.91;82.29;99621.14;1668789;84;21195;-78
2021/01/26 08:23:47;;;;;;;14.03;3.65;;;;;;;4.99;82.27;99622.58;1663232;84;21986;-78
2021/01/26 08:26:53;;;;;;;19.40;4.10;;;;;;;5.02;82.05;99623.59;1671822;84;21318;-78
2021/01/26 08:30:09;;;;;;;9.63;3.33;;;;;;;5.01;81.63;99625.97;1668934;84;21306;-78
2021/01/26 08:33:23;;;;;;;8.45;3.47;;;;;;;5.00;81.75;99621.05;1669816;84;21212;-82
2021/01/26 08:36:41;;;;;;;8.03;3.02;;;;;;;4.97;81.76;99623.22;1653368;84;21250;-82
2021/01/26 08:39:50;;;;;;;12.25;3.60;;;;;;;4.95;81.98;99619.83;1672826;84;22179;-85
2021/01/26 08:43:02;;;;;;;22.62;4.53;;;;;;;4.97;82.16;99621.86;1655164;85;21314;-82
2021/01/26 08:46:12;;;;;;;18.23;3.65;;;;;;;4.95;82.12;99614.41;1661421;85;21334;-84
2021/01/26 08:49:40;;;;;;;7.22;3.05;;;;;;;4.99;82.42;99625.28;1708608;82;21886;-85
2021/01/26 08:53:06;;;;;;;12.63;4.72;;;;;;;5.11;82.64;99619.94;1699999;82;21294;-86
2021/01/26 08:56:36;;;;;;;9.73;4.47;;;;;;;5.22;82.15;99603.43;1710259;82;21239;-87
2021/01/26 08:59:57;;;;;;;9.48;3.72;;;;;;;5.28;82.27;99597.36;1708665;82;21243;-85
2021/01/26 09:03:04;;;;;;;15.58;3.90;;;;;;;5.40;82.43;99565.38;1710942;82;21305;-85
2021/01/26 09:06:18;;;;;;;13.75;3.60;;;;;;;5.42;81.84;99540.83;1674398;84;21674;-84
2021/01/26 09:09:37;;;;;;;9.90;3.52;;;;;;;5.39;81.85;99549.62;1654032;85;21922;-85
2021/01/26 09:12:45;;;;;;;12.90;3.90;;;;;;;5.37;81.33;99563.86;1639112;86;21943;-85
2021/01/26 09:15:57;;;;;;;8.73;4.05;;;;;;;5.33;81.26;99561.63;1708593;82;21172;-85
2021/01/26 09:19:16;;;;;;;16.40;3.87;;;;;;;5.34;81.52;99577.73;1708194;82;21708;-79
2021/01/26 09:22:29;;;;;;;10.98;3.60;;;;;;;5.43;81.99;99581.85;1708269;82;21893;-79
2021/01/26 09:25:39;;;;;;;11.55;3.77;;;;;;;5.54;82.06;99585.62;1651681;84;21283;-79
2021/01/26 09:28:54;;;;;;;18.70;3.77;;;;;;;5.63;81.86;99593.64;1712598;82;21294;-77
2021/01/26 09:31:59;;;;;;;12.55;4.05;;;;;;;5.75;81.86;99595.58;1703471;82;21293;-77
2021/01/26 09:35:22;;;;;;;19.20;3.45;;;;;;;5.84;81.62;99599.19;1706459;82;21290;-78
2021/01/26 09:38:53;;;;;;;19.00;4.15;;;;;;;5.87;81.22;99601.05;1708695;82;21700;-78
2021/01/26 09:41:59;;;;;;;10.75;4.10;;;;;;;5.85;81.18;99609.88;1680150;82;21287;-84
2021/01/26 09:45:16;;;;;;;13.50;5.33;;;;;;;5.76;80.77;99620.34;1714825;82;21317;-79
2021/01/26 09:48:26;;;;;;;10.38;4.92;;;;;;;5.68;80.99;99614.87;1709452;82;21415;-79
2021/01/26 09:51:38;;;;;;;12.03;4.10;;;;;;;5.55;81.23;99613.09;1714883;82;21708;-80
2021/01/26 09:54:50;;;;;;;14.03;4.65;;;;;;;5.37;81.57;99614.54;1653595;84;22007;-80
2021/01/26 09:57:59;;;;;;;13.53;3.60;;;;;;;5.27;82.45;99621.42;1670352;84;21612;-80
2021/01/26 10:01:02;;;;;;;11.22;3.55;;;;;;;5.22;83.02;99614.28;1670416;84;21770;-80
2021/01/26 10:04:12;;;;;;;;;;;;;;;5.20;83.47;99610.01;1712053;82;21856;-79
2021/01/26 10:07:23;;;;;;;13.03;4.80;;;;;;;5.16;83.52;99605.41;1702179;82;20476;-84
2021/01/26 10:10:30;;;;;;;15.68;4.20;;;;;;;5.08;83.82;99603.98;1695025;82;21204;-78
2021/01/26 10:13:40;;;;;;;11.57;3.42;;;;;;;4.97;84.06;99595.61;1698624;82;22234;-79
2021/01/26 10:16:49;;;;;;;9.48;3.72;;;;;;;4.90;84.20;99597.77;1707385;82;21871;-78
2021/01/26 10:20:05;;;;;;;9.70;3.65;;;;;;;4.84;84.40;99577.55;1670402;84;21874;-79
2021/01/26 10:23:17;;;;;;;11.73;3.98;;;;;;;4.83;84.63;99578.05;1706301;82;21504;-79
2021/01/26 10:26:31;;;;;;;10.72;3.67;;;;;;;4.77;84.75;99580.05;1703756;82;21670;-79
2021/01/26 10:29:42;;;;;;;15.13;4.05;;;;;;;4.76;85.01;99566.16;1673855;84;21528;-79
2021/01/26 10:32:52;;;;;;;13.75;4.37;;;;;;;4.79;85.24;99573.95;1638980;86;21776;-78
2021/01/26 10:36:25;;;;;;;15.03;3.92;;;;;;;4.84;85.40;99562.13;1664785;83;21333;-79
2021/01/26 10:39:37;;;;;;;14.60;4.85;;;;;;;4.87;85.14;99556.41;1599683;88;21436;-79
2021/01/26 10:42:42;;;;;;;14.18;5.28;;;;;;;4.91;85.18;99547.47;1643441;86;21714;-79
2021/01/26 10:45:58;;;;;;;13.98;5.00;;;;;;;5.02;85.36;99541.77;1709730;82;21901;-79
2021/01/26 10:49:04;;;;;;;15.45;5.17;;;;;;;5.10;85.23;99534.20;1708264;82;21355;-79
2021/01/26 10:52:16;;;;;;;13.15;4.78;;;;;;;5.11;84.83;99519.13;1704490;82;21426;-81
2021/01/26 10:55:27;;;;;;;17.37;5.47;;;;;;;5.14;84.64;99523.39;1706319;82;21172;-80
2021/01/26 10:58:32;;;;;;;10.23;4.17;;;;;;;5.19;84.82;99531.89;1705158;82;21341;-79
2021/01/26 11:01:37;;;;;;;12.60;4.75;;;;;;;5.24;84.53;99537.68;1710450;82;21895;-78
2021/01/26 11:04:46;;;;;;;14.78;4.70;;;;;;;5.29;84.23;99539.40;1713287;82;21180;-79
2021/01/26 11:07:52;;;;;;;14.78;4.95;;;;;;;5.37;84.10;99541.31;1707513;82;21358;-80
2021/01/26 11:10:57;;;;;;;18.35;5.10;;;;;;;5.34;83.96;99545.19;1709372;82;21313;-86
2021/01/26 11:14:05;;;;;;;13.53;4.97;;;;;;;5.33;84.03;99533.16;1708552;82;21310;-85
2021/01/26 11:17:09;;;;;;;14.63;5.05;;;;;;;5.30;84.10;99534.31;1710702;82;21148;-82
2021/01/26 11:20:16;;;;;;;15.45;4.95;;;;;;;5.28;84.29;99528.22;1710167;82;21128;-81
2021/01/26 11:23:23;;;;;;;10.60;4.15;;;;;;;5.32;84.34;99519.26;1707217;82;21321;-83
2021/01/26 11:26:24;;;;;;;11.33;4.90;;;;;;;5.38;84.40;99520.80;1706848;82;21341;-82
2021/01/26 11:29:30;;;;;;;10.90;4.43;;;;;;;5.41;84.36;99535.04;1712501;82;21196;-87
2021/01/26 11:32:36;;;;;;;12.15;4.08;;;;;;;5.37;84.46;99538.09;1672246;82;21432;-86
2021/01/26 11:35:41;;;;;;;14.78;4.92;;;;;;;5.37;84.70;99553.02;1703082;82;21789;-85
2021/01/26 11:38:47;;;;;;;15.28;5.10;;;;;;;5.43;84.94;99545.23;1703220;82;21665;-81
2021/01/26 11:41:55;;;;;;;19.12;5.45;;;;;;;5.45;84.76;99540.48;1695027;82;21171;-80
2021/01/26 11:45:02;;;;;;;20.27;4.97;;;;;;;5.45;84.56;99544.05;1695398;82;21922;-80
2021/01/26 11:48:19;;;;;;;12.33;4.12;;;;;;;5.53;84.67;99532.39;1699000;82;21194;-79
2021/01/26 11:51:25;;;;;;;18.70;5.00;;;;;;;5.60;84.46;99538.38;1698712;82;22150;-82
2021/01/26 11:54:31;;;;;;;14.00;5.22;;;;;;;5.65;84.27;99543.31;1698406;82;21314;-81
2021/01/26 11:57:37;;;;;;;22.85;5.37;;;;;;;5.68;84.10;99544.32;1699169;82;21313;-83
2021/01/26 12:00:56;;;;;;;15.38;5.12;;;;;;;5.67;83.87;99535.84;1690801;82;21754;-83
2021/01/26 12:04:04;;;;;;;15.78;5.70;;;;;;;5.62;83.83;99511.07;1700455;82;21309;-80
2021/01/26 12:07:11;;;;;;;12.63;5.20;;;;;;;5.57;84.10;99513.42;1684565;82;21357;-82
2021/01/26 12:10:19;;;;;;;14.18;5.75;;;;;;;5.51;84.54;99511.38;1695981;82;21618;-81
2021/01/26 12:13:31;;;;;;;14.53;5.62;;;;;;;5.46;85.12;99508.27;1696826;82;21321;-80
2021/01/26 12:16:38;;;;;;;13.38;5.05;;;;;;;5.45;85.46;99510.66;1695539;82;21840;-77
2021/01/26 12:19:52;;;;;;;12.53;5.15;;;;;;;5.38;85.80;99527.59;1694459;82;21780;-80
2021/01/26 12:23:02;;;;;;;14.40;5.30;;;;;;;5.31;86.21;99522.95;1697716;82;21177;-77
2021/01/26 12:26:09;;;;;;;12.37;5.42;;;;;;;5.24;86.74;99515.98;1698060;82;21288;-78
2021/01/26 12:29:15;;;;;;;15.18;6.37;;;;;;;5.21;87.32;99509.52;1696300;82;21201;-80
2021/01/26 12:32:21;;;;;;;14.87;5.12;;;;;;;5.22;87.79;99508.53;1697167;82;21338;-79
2021/01/26 12:35:39;;;;;;;13.00;6.00;;;;;;;5.27;88.12;99509.38;1657076;84;21185;-81
2021/01/26 12:38:46;;;;;;;18.17;6.80;;;;;;;5.26;88.21;99498.19;1700176;82;21276;-79
2021/01/26 12:42:06;;;;;;;23.35;8.85;;;;;;;5.25;88.43;99493.28;1846747;76;22183;-81
2021/01/26 12:45:17;;;;;;;28.87;15.78;;;;;;;5.17;88.55;99489.16;1821266;77;21251;-82
2021/01/26 12:48:33;;;;;;;14.23;6.50;;;;;;;5.12;88.75;99486.09;1787559;77;21172;-80
2021/01/26 12:51:39;;;;;;;15.70;7.40;;;;;;;5.08;89.06;99482.00;1820234;77;21200;-79
2021/01/26 12:54:47;;;;;;;22.02;9.83;;;;;;;5.00;89.56;99467.06;1815196;77;21442;-80
2021/01/26 12:57:54;;;;;;;22.20;9.33;;;;;;;4.93;90.09;99470.91;1803844;77;21318;-80
2021/01/26 13:01:14;;;;;;;22.85;12.25;;;;;;;4.87;90.58;99466.98;1771630;77;21294;-80
2021/01/26 13:04:20;;;;;;;18.27;6.10;;;;;;;4.82;91.14;99462.55;1785345;77;21477;-79
2021/01/26 13:07:26;;;;;;;17.02;5.75;;;;;;;4.79;91.61;99456.09;1817485;77;21377;-80
2021/01/26 13:10:33;;;;;;;19.92;8.13;;;;;;;4.79;91.97;99455.24;1817537;77;21295;-79
2021/01/26 13:13:41;;;;;;;32.05;13.68;;;;;;;4.77;92.31;99451.86;1787430;77;21235;-80
2021/01/26 13:16:46;;;;;;;31.20;15.50;;;;;;;4.76;92.68;99441.53;1815863;77;21291;-80
2021/01/26 13:19:52;;;;;;;14.03;7.70;;;;;;;4.75;93.03;99438.95;1817088;77;21497;-80
2021/01/26 13:22:58;;;;;;;16.42;6.55;;;;;;;4.73;93.41;99445.91;1820593;77;21333;-80
2021/01/26 13:26:03;;;;;;;26.55;12.47;;;;;;;4.71;93.79;99439.81;1818604;77;21925;-80
2021/01/26 13:29:09;;;;;;;15.08;5.85;;;;;;;4.72;94.18;99436.59;1818694;77;21315;-81
2021/01/26 13:32:16;;;;;;;13.88;4.83;;;;;;;4.73;94.49;99440.48;1819200;77;21285;-80
2021/01/26 13:35:22;;;;;;;13.62;5.28;;;;;;;4.74;94.69;99441.33;1767282;79;21322;-80
2021/01/26 13:38:28;;;;;;;15.72;4.42;;;;;;;4.77;94.88;99426.12;1769879;79;21622;-80
2021/01/26 13:41:35;;;;;;;11.10;4.90;;;;;;;4.81;94.99;99414.80;1740562;80;21331;-80
2021/01/26 13:44:43;;;;;;;13.90;5.33;;;;;;;4.85;95.11;99409.91;1729659;82;21303;-80
2021/01/26 13:47:48;;;;;;;25.30;9.90;;;;;;;4.85;95.16;99401.28;1783371;78;21288;-80
2021/01/26 13:50:54;;;;;;;20.43;7.53;;;;;;;4.83;95.34;99382.96;1795452;78;21243;-80
2021/01/26 13:53:59;;;;;;;22.55;8.68;;;;;;;4.84;95.56;99386.00;1777140;78;21935;-80
2021/01/26 13:57:05;;;;;;;24.52;10.98;;;;;;;4.85;95.82;99381.47;1787431;78;21362;-80
2021/01/26 14:00:13;;;;;;;31.20;16.42;;;;;;;4.84;96.07;99372.45;1791454;78;21284;-80
2021/01/26 14:03:19;;;;;;;39.63;16.45;;;;;;;4.87;96.26;99374.01;1789615;78;21300;-80
2021/01/26 14:06:26;;;;;;;67.20;24.67;;;;;;;4.87;96.43;99364.02;1789990;78;21317;-81
2021/01/26 14:09:33;;;;;;;61.92;23.18;;;;;;;4.89;96.52;99369.27;1792080;78;22559;-80
2021/01/26 14:12:39;;;;;;;56.48;21.50;;;;;;;4.92;96.55;99376.23;1794477;78;21324;-81
2021/01/26 14:15:46;;;;;;;47.98;18.07;;;;;;;4.92;96.53;99394.69;1786320;78;21305;-81
2021/01/26 14:18:51;;;;;;;32.35;11.33;;;;;;;4.91;96.51;99400.28;1789808;78;21315;-81
2021/01/26 14:21:57;;;;;;;17.70;6.12;;;;;;;4.91;96.70;99409.77;1794079;78;21240;-80
2021/01/26 14:25:04;;;;;;;14.10;5.10;;;;;;;4.90;96.92;99402.15;1791546;78;21233;-81
2021/01/26 14:28:09;;;;;;;12.90;4.70;;;;;;;4.90;97.16;99393.17;1784594;79;21327;-81
2021/01/26 14:31:15;;;;;;;14.07;5.12;;;;;;;4.88;97.34;99375.19;1781008;78;21659;-80
2021/01/26 14:34:21;;;;;;;14.07;4.80;;;;;;;4.91;97.49;99370.47;1791679;78;21662;-79
2021/01/26 14:37:27;;;;;;;10.10;4.30;;;;;;;4.90;97.61;99373.69;1794419;78;21304;-80
2021/01/26 14:40:34;;;;;;;17.20;4.85;;;;;;;4.94;97.72;99390.45;1787243;78;21320;-80
2021/01/26 14:43:39;;;;;;;12.10;4.60;;;;;;;4.93;97.82;99383.34;1776342;78;21360;-80
2021/01/26 14:46:46;;;;;;;10.63;4.28;;;;;;;4.92;98.00;99384.36;1794983;78;21299;-80
2021/01/26 14:49:51;;;;;;;17.40;5.92;;;;;;;4.93;98.25;99373.86;1799605;79;21174;-80
2021/01/26 14:52:57;;;;;;;14.60;5.40;;;;;;;4.90;98.51;99364.21;1799215;79;21191;-80
2021/01/26 14:56:03;;;;;;;12.28;4.80;;;;;;;4.87;98.81;99361.30;1797904;79;21206;-80
2021/01/26 14:59:09;;;;;;;19.52;6.15;;;;;;;4.86;99.18;99363.67;1799657;79;21376;-80
2021/01/26 15:02:14;;;;;;;17.07;5.50;;;;;;;4.87;99.56;99350.47;1799445;79;21603;-80
2021/01/26 15:05:21;;;;;;;13.90;4.72;;;;;;;4.90;99.92;99340.33;1798342;79;21187;-80
2021/01/26 15:08:27;;;;;;;14.78;5.30;;;;;;;4.91;100.00;99348.80;1799748;79;21301;-81
2021/01/26 15:11:33;;;;;;;18.55;4.90;;;;;;;4.92;100.00;99364.03;1800430;79;21321;-80
2021/01/26 15:14:38;;;;;;;12.78;5.37;;;;;;;4.95;100.00;99352.87;1800723;79;21364;-80